createdAt,value
2022-10-10T00:01:20.358Z,17.53
2022-10-10T00:03:47.525Z,20.80
2022-10-10T00:06:15.243Z,20.57
2022-10-10T00:08:42.886Z,19.20
2022-10-10T00:11:10.975Z,20.93
2022-10-10T00:13:38.151Z,16.27
2022-10-10T00:16:05.464Z,19.73
2022-10-10T00:18:33.200Z,19.53
2022-10-10T00:21:00.254Z,18.10
2022-10-10T00:23:27.581Z,22.10
2022-10-10T00:25:54.524Z,19.70
2022-10-10T00:28:21.548Z,28.97
2022-10-10T00:30:48.494Z,21.83
2022-10-10T00:33:15.655Z,20.83
2022-10-10T00:35:42.470Z,22.13
2022-10-10T00:38:10.371Z,19.83
2022-10-10T00:40:49.203Z,25.20
2022-10-10T00:43:17.328Z,23.33
2022-10-10T00:45:46.249Z,19.40
2022-10-10T00:50:50.728Z,17.97
2022-10-10T00:53:22.166Z,23.40
2022-10-10T00:55:49.440Z,23.17
2022-10-10T00:58:17.617Z,19.07
2022-10-10T01:00:44.613Z,22.03
2022-10-10T01:03:11.667Z,18.07
2022-10-10T01:05:39.387Z,23.07
2022-10-10T01:08:07.500Z,17.77
2022-10-10T01:10:58.702Z,22.87
2022-10-10T01:13:32.482Z,18.07
2022-10-10T01:16:11.087Z,25.37
2022-10-10T01:18:40.896Z,26.67
2022-10-10T01:21:19.271Z,21.17
2022-10-10T01:24:19.886Z,23.08
2022-10-10T01:27:16.794Z,21.47
2022-10-10T01:29:51.493Z,21.37
2022-10-10T01:32:26.287Z,21.53
2022-10-10T01:35:00.109Z,22.50
2022-10-10T01:37:53.943Z,23.63
2022-10-10T01:40:31.589Z,20.47
2022-10-10T01:43:08.487Z,20.83
2022-10-10T01:45:35.522Z,19.87
2022-10-10T01:48:05.380Z,17.43
2022-10-10T01:50:39.459Z,17.50
2022-10-10T01:53:14.271Z,19.30
2022-10-10T01:55:44.266Z,18.03
2022-10-10T01:58:44.686Z,19.37
2022-10-10T02:01:26.982Z,21.73
2022-10-10T02:04:09.480Z,19.90
2022-10-10T02:06:48.807Z,20.07
2022-10-10T02:11:49.083Z,17.23
2022-10-10T02:19:18.799Z,22.38
2022-10-10T02:21:48.559Z,19.83
2022-10-10T02:24:16.009Z,20.03
2022-10-10T02:26:46.963Z,21.47
2022-10-10T02:29:29.156Z,23.43
2022-10-10T02:32:20.932Z,17.57
2022-10-10T02:34:52.623Z,18.67
2022-10-10T02:37:20.490Z,16.90
2022-10-10T02:39:52.074Z,18.73
2022-10-10T02:42:22.082Z,18.27
2022-10-10T02:44:49.423Z,15.90
2022-10-10T02:47:16.807Z,16.27
2022-10-10T02:49:44.134Z,15.43
2022-10-10T02:52:14.632Z,15.57
2022-10-10T02:54:41.428Z,15.27
2022-10-10T02:57:08.781Z,20.83
2022-10-10T02:59:35.554Z,17.23
2022-10-10T03:02:02.500Z,14.40
2022-10-10T03:04:29.522Z,19.30
2022-10-10T03:06:56.517Z,19.20
2022-10-10T03:09:23.301Z,18.90
2022-10-10T03:11:50.396Z,16.07
2022-10-10T03:14:17.191Z,19.47
2022-10-10T03:16:44.222Z,16.47
2022-10-10T03:19:11.124Z,21.30
2022-10-10T03:21:37.921Z,15.57
2022-10-10T03:24:05.846Z,19.50
2022-10-10T03:26:32.914Z,21.73
2022-10-10T03:29:02.295Z,19.53
2022-10-10T03:31:29.138Z,21.87
2022-10-10T03:33:56.139Z,22.87
2022-10-10T03:36:23.298Z,23.53
2022-10-10T03:38:50.276Z,28.33
2022-10-10T03:41:17.118Z,25.37
2022-10-10T03:43:44.141Z,23.47
2022-10-10T03:46:15.795Z,22.47
2022-10-10T03:48:43.695Z,24.43
2022-10-10T03:51:10.520Z,19.23
2022-10-10T03:53:37.589Z,21.47
2022-10-10T03:56:05.345Z,16.43
2022-10-10T03:58:32.433Z,19.20
2022-10-10T04:01:02.185Z,15.13
2022-10-10T04:03:30.058Z,16.90
2022-10-10T04:05:57.883Z,18.57
2022-10-10T04:08:25.182Z,17.87
2022-10-10T04:10:53.543Z,16.57
2022-10-10T04:13:22.723Z,11.13
2022-10-10T04:15:53.967Z,16.83
2022-10-10T04:18:21.168Z,18.70
2022-10-10T04:20:47.957Z,15.97
2022-10-10T04:23:15.168Z,17.70
2022-10-10T04:25:42.052Z,17.93
2022-10-10T04:28:12.568Z,18.97
2022-10-10T04:30:39.823Z,27.77
2022-10-10T04:33:07.138Z,30.40
2022-10-10T04:35:34.184Z,33.60
2022-10-10T04:38:01.230Z,26.70
2022-10-10T04:40:28.267Z,25.53
2022-10-10T04:42:56.018Z,30.97
2022-10-10T04:45:26.655Z,37.53
2022-10-10T04:47:54.639Z,35.27
2022-10-10T04:50:22.167Z,31.27
2022-10-10T04:52:49.504Z,33.17
2022-10-10T04:55:16.507Z,25.50
2022-10-10T04:57:43.539Z,35.37
2022-10-10T05:00:10.762Z,29.67
2022-10-10T05:02:37.896Z,32.37
2022-10-10T05:05:05.233Z,22.73
2022-10-10T05:07:32.250Z,38.63
2022-10-10T05:09:59.041Z,28.70
2022-10-10T05:12:26.134Z,21.43
2022-10-10T05:14:52.895Z,20.10
2022-10-10T05:17:20.579Z,19.47
2022-10-10T05:19:47.614Z,18.13
2022-10-10T05:22:14.545Z,19.87
2022-10-10T05:24:41.273Z,13.50
2022-10-10T05:27:08.329Z,14.10
2022-10-10T05:29:35.126Z,14.53
2022-10-10T05:32:04.426Z,12.57
2022-10-10T05:34:34.537Z,11.82
2022-10-10T05:37:01.494Z,11.77
2022-10-10T05:39:28.429Z,15.95
2022-10-10T05:41:55.579Z,21.90
2022-10-10T05:44:22.306Z,20.98
2022-10-10T05:46:49.274Z,15.73
2022-10-10T05:49:16.183Z,22.08
2022-10-10T05:51:43.167Z,13.88
2022-10-10T05:54:10.256Z,16.17
2022-10-10T05:56:37.662Z,12.73
2022-10-10T05:59:04.768Z,10.70
2022-10-10T06:01:31.971Z,11.23
2022-10-10T06:03:58.746Z,15.00
2022-10-10T06:06:26.207Z,13.48
2022-10-10T06:08:53.495Z,11.25
2022-10-10T06:11:20.849Z,8.52
2022-10-10T06:13:49.808Z,12.52
2022-10-10T06:16:16.907Z,12.63
2022-10-10T06:18:44.375Z,6.10
2022-10-10T06:21:12.677Z,8.52
2022-10-10T06:23:39.479Z,11.80
2022-10-10T06:26:06.537Z,9.45
2022-10-10T06:28:33.565Z,8.45
2022-10-10T06:31:01.961Z,11.68
2022-10-10T06:33:29.368Z,10.52
2022-10-10T06:35:56.720Z,10.98
2022-10-10T06:38:24.039Z,11.52
2022-10-10T06:40:51.038Z,9.45
2022-10-10T06:43:17.852Z,8.07
2022-10-10T06:45:47.111Z,8.52
2022-10-10T06:50:42.072Z,9.77
2022-10-10T06:53:09.015Z,8.52
2022-10-10T06:55:36.013Z,8.43
2022-10-10T06:58:02.972Z,9.77
2022-10-10T07:00:29.972Z,7.60
2022-10-10T07:02:56.783Z,8.60
2022-10-10T07:05:24.018Z,9.30
2022-10-10T07:07:52.225Z,5.88
2022-10-10T07:10:19.237Z,7.15
2022-10-10T07:12:46.027Z,7.82
2022-10-10T07:15:13.328Z,6.80
2022-10-10T07:17:40.360Z,7.43
2022-10-10T07:20:07.819Z,5.72
2022-10-10T07:22:34.638Z,5.35
2022-10-10T07:25:01.675Z,6.22
2022-10-10T07:27:28.468Z,6.07
2022-10-10T07:29:55.553Z,4.22
2022-10-10T07:32:22.570Z,4.78
2022-10-10T07:34:51.019Z,5.63
2022-10-10T07:37:17.979Z,3.35
2022-10-10T07:39:44.920Z,2.72
2022-10-10T07:42:11.698Z,3.90
2022-10-10T07:44:38.656Z,4.10
2022-10-10T07:47:05.615Z,4.45
2022-10-10T07:49:32.733Z,6.25
2022-10-10T07:52:01.566Z,5.50
2022-10-10T07:54:29.778Z,6.30
2022-10-10T07:56:57.179Z,5.60
2022-10-10T07:59:24.697Z,3.60
2022-10-10T08:01:51.941Z,4.15
2022-10-10T08:04:19.048Z,2.60
2022-10-10T08:06:45.833Z,4.10
2022-10-10T08:09:12.793Z,2.88
2022-10-10T08:11:39.763Z,5.18
2022-10-10T08:14:06.823Z,6.75
2022-10-10T08:16:33.738Z,3.58
2022-10-10T08:19:00.748Z,3.10
2022-10-10T08:21:27.670Z,3.50
2022-10-10T08:23:55.474Z,5.22
2022-10-10T08:26:22.269Z,5.72
2022-10-10T08:28:49.882Z,3.90
2022-10-10T08:31:19.495Z,4.75
2022-10-10T08:33:47.443Z,3.55
2022-10-10T08:36:20.117Z,5.85
2022-10-10T08:38:48.105Z,3.85
2022-10-10T08:41:48.471Z,3.85
2022-10-10T08:44:33.913Z,7.15
2022-10-10T08:47:12.129Z,3.53
2022-10-10T08:49:55.661Z,4.75
2022-10-10T08:52:30.620Z,9.18
2022-10-10T08:55:01.652Z,6.43
2022-10-10T08:58:06.000Z,9.73
2022-10-10T09:00:39.946Z,6.82
2022-10-10T09:03:24.020Z,5.97
2022-10-10T09:06:12.009Z,9.20
2022-10-10T09:09:01.372Z,7.50
2022-10-10T09:11:37.446Z,5.05
2022-10-10T09:14:31.968Z,6.20
2022-10-10T09:17:15.463Z,7.55
2022-10-10T09:20:00.397Z,10.40
2022-10-10T09:22:33.476Z,4.30
2022-10-10T09:25:16.611Z,5.32
2022-10-10T09:27:53.267Z,5.43
2022-10-10T09:30:21.447Z,4.47
2022-10-10T09:33:04.509Z,8.75
2022-10-10T09:35:35.847Z,8.50
2022-10-10T09:38:34.170Z,7.82
2022-10-10T09:41:19.279Z,7.10
2022-10-10T09:43:48.511Z,7.38
2022-10-10T09:48:43.295Z,6.90
2022-10-10T09:51:15.718Z,5.43
2022-10-10T09:53:44.298Z,6.90
2022-10-10T09:56:21.502Z,6.55
2022-10-10T09:58:50.826Z,5.30
2022-10-10T10:04:27.836Z,4.05
2022-10-10T10:07:05.665Z,5.05
2022-10-10T10:09:33.449Z,3.00
2022-10-10T10:12:00.633Z,6.65
2022-10-10T10:14:32.167Z,6.43
2022-10-10T10:17:15.858Z,9.73
2022-10-10T10:19:45.557Z,5.53
2022-10-10T10:22:32.935Z,9.15
2022-10-10T10:25:20.894Z,16.30
2022-10-10T10:27:47.671Z,9.48
2022-10-10T10:30:25.393Z,4.20
2022-10-10T10:33:09.681Z,3.03
2022-10-10T10:35:47.059Z,6.80
2022-10-10T10:38:50.126Z,3.47
2022-10-10T10:41:43.183Z,6.13
2022-10-10T10:44:28.792Z,7.95
2022-10-10T10:46:58.804Z,7.68
2022-10-10T10:49:34.267Z,3.97
2022-10-10T10:52:17.526Z,4.57
2022-10-10T10:55:09.160Z,6.15
2022-10-10T10:58:10.496Z,9.45
2022-10-10T11:01:23.457Z,4.63
2022-10-10T11:05:20.603Z,11.63
2022-10-10T11:07:17.073Z,4.55
2022-10-10T11:10:08.802Z,6.22
2022-10-10T11:13:02.547Z,6.03
2022-10-10T11:18:51.824Z,5.60
2022-10-10T11:21:26.199Z,8.07
2022-10-10T11:24:19.794Z,4.82
2022-10-10T11:26:52.471Z,9.68
2022-10-10T11:29:24.451Z,3.72
2022-10-10T11:32:07.242Z,6.80
2022-10-10T11:34:42.600Z,5.75
2022-10-10T11:37:18.054Z,4.97
2022-10-10T11:39:59.799Z,2.25
2022-10-10T11:42:49.804Z,4.70
2022-10-10T11:45:24.225Z,6.43
2022-10-10T11:47:59.159Z,5.85
2022-10-10T11:50:32.354Z,5.05
2022-10-10T11:53:05.476Z,4.45
2022-10-10T11:55:43.608Z,6.97
2022-10-10T11:58:10.541Z,6.85
2022-10-10T12:00:52.880Z,5.07
2022-10-10T12:03:19.892Z,5.38
2022-10-10T12:05:58.130Z,15.10
2022-10-10T12:08:43.523Z,6.32
2022-10-10T12:11:10.261Z,5.75
2022-10-10T12:13:47.600Z,7.88
2022-10-10T12:16:19.763Z,3.50
2022-10-10T12:18:51.032Z,9.60
2022-10-10T12:21:24.847Z,5.30
2022-10-10T12:24:04.477Z,10.25
2022-10-10T12:26:53.015Z,8.45
2022-10-10T12:29:57.631Z,8.93
2022-10-10T12:32:27.588Z,6.50
2022-10-10T12:34:59.529Z,8.20
2022-10-10T12:37:26.570Z,5.70
2022-10-10T12:40:05.173Z,3.75
2022-10-10T12:42:52.386Z,4.35
2022-10-10T12:45:31.412Z,11.65
2022-10-10T12:48:06.394Z,5.78
2022-10-10T12:50:40.412Z,4.03
2022-10-10T12:53:18.332Z,5.57
2022-10-10T12:55:47.939Z,4.95
2022-10-10T12:58:32.300Z,6.15
2022-10-10T13:01:02.664Z,8.20
2022-10-10T13:03:50.702Z,4.43
2022-10-10T13:06:35.389Z,4.45
2022-10-10T13:09:04.264Z,4.10
2022-10-10T13:11:31.100Z,2.80
2022-10-10T13:13:58.155Z,6.22
2022-10-10T13:16:31.321Z,6.03
2022-10-10T13:19:01.035Z,5.72
2022-10-10T13:21:31.530Z,5.32
2022-10-10T13:24:04.837Z,6.45
2022-10-10T13:26:43.856Z,5.60
2022-10-10T13:29:29.079Z,3.60
2022-10-10T13:32:05.097Z,6.00
2022-10-10T13:34:37.671Z,5.85
2022-10-10T13:37:06.292Z,8.43
2022-10-10T13:39:37.556Z,4.75
2022-10-10T13:42:06.107Z,7.22
2022-10-10T13:44:47.926Z,4.95
2022-10-10T13:47:39.887Z,9.93
2022-10-10T13:50:18.921Z,11.20
2022-10-10T13:52:45.977Z,5.80
2022-10-10T13:55:25.604Z,4.07
2022-10-10T13:58:01.471Z,7.18
2022-10-10T14:00:32.736Z,6.60
2022-10-10T14:03:00.149Z,7.85
2022-10-10T14:05:31.111Z,8.45
2022-10-10T14:07:58.951Z,8.98
2022-10-10T14:10:28.617Z,7.20
2022-10-10T14:13:00.139Z,6.75
2022-10-10T14:15:36.058Z,8.50
2022-10-10T14:18:15.045Z,6.43
2022-10-10T14:20:42.664Z,5.05
2022-10-10T14:23:09.553Z,6.53
2022-10-10T14:25:41.148Z,6.40
2022-10-10T14:28:15.723Z,5.80
2022-10-10T14:30:42.491Z,5.75
2022-10-10T14:33:12.161Z,7.00
2022-10-10T14:35:39.719Z,7.20
2022-10-10T14:38:06.777Z,6.90
2022-10-10T14:40:34.312Z,7.53
2022-10-10T14:43:01.293Z,8.43
2022-10-10T14:45:28.424Z,11.27
2022-10-10T14:47:55.561Z,12.40
2022-10-10T14:50:27.264Z,8.48
2022-10-10T14:52:54.412Z,5.20
2022-10-10T14:55:21.223Z,6.15
2022-10-10T14:57:48.333Z,5.93
2022-10-10T15:00:17.861Z,5.25
2022-10-10T15:02:45.926Z,6.70
2022-10-10T15:05:13.810Z,7.90
2022-10-10T15:07:42.080Z,9.10
2022-10-10T15:10:32.806Z,9.15
2022-10-10T15:12:57.577Z,10.83
2022-10-10T15:15:24.918Z,11.07
2022-10-10T15:17:51.743Z,9.48
2022-10-10T15:20:18.736Z,8.63
2022-10-10T15:22:46.576Z,9.10
2022-10-10T15:25:13.443Z,8.10
2022-10-10T15:27:40.242Z,4.95
2022-10-10T15:30:07.881Z,7.45
2022-10-10T15:32:38.304Z,8.43
2022-10-10T15:35:05.415Z,13.05
2022-10-10T15:37:32.346Z,10.40
2022-10-10T15:39:59.151Z,9.88
2022-10-10T15:42:26.204Z,7.93
2022-10-10T15:44:53.438Z,7.85
2022-10-10T15:47:20.609Z,13.27
2022-10-10T15:49:47.962Z,14.73
2022-10-10T15:52:15.378Z,18.05
2022-10-10T15:54:42.344Z,11.98
2022-10-10T15:57:09.182Z,11.07
2022-10-10T15:59:38.071Z,12.82
2022-10-10T16:02:07.410Z,17.80
2022-10-10T16:04:34.451Z,15.68
2022-10-10T16:09:48.148Z,24.98
2022-10-10T16:12:15.019Z,24.45
2022-10-10T16:14:41.770Z,22.27
2022-10-10T16:17:08.867Z,21.98
2022-10-10T16:19:35.666Z,20.50
2022-10-10T16:22:02.511Z,20.77
2022-10-10T16:24:30.113Z,21.17
2022-10-10T16:26:58.023Z,14.70
2022-10-10T16:29:24.841Z,15.57
2022-10-10T16:31:51.882Z,18.23
2022-10-10T16:34:19.594Z,12.75
2022-10-10T16:36:46.594Z,14.02
2022-10-10T16:39:13.436Z,14.27
2022-10-10T16:41:48.067Z,12.85
2022-10-10T16:44:16.639Z,17.77
2022-10-10T16:46:43.722Z,13.15
2022-10-10T16:49:12.864Z,11.05
2022-10-10T16:54:06.634Z,15.55
2022-10-10T16:56:34.543Z,11.63
2022-10-10T16:59:01.903Z,17.23
2022-10-10T17:01:29.322Z,17.35
2022-10-10T17:03:59.601Z,15.35
2022-10-10T17:06:32.554Z,13.40
2022-10-10T17:09:02.631Z,22.77
2022-10-10T17:11:29.827Z,23.48
2022-10-10T17:13:56.757Z,14.77
2022-10-10T17:17:06.923Z,16.73
2022-10-10T17:19:13.982Z,21.88
2022-10-10T17:21:41.053Z,21.67
2022-10-10T17:24:08.056Z,13.93
2022-10-10T17:26:34.847Z,19.80
2022-10-10T17:29:01.877Z,15.52
2022-10-10T17:31:28.751Z,12.45
2022-10-10T17:33:57.076Z,15.05
2022-10-10T17:36:25.799Z,19.05
2022-10-10T17:38:56.157Z,34.72
2022-10-10T17:41:23.921Z,35.00
2022-10-10T17:43:51.321Z,36.35
2022-10-10T17:46:40.450Z,96.68
2022-10-10T17:49:09.945Z,45.40
2022-10-10T17:51:38.196Z,48.15
2022-10-10T17:54:06.637Z,52.25
2022-10-10T17:56:34.146Z,39.17
2022-10-10T17:59:01.895Z,79.78
2022-10-10T18:01:30.756Z,63.47
2022-10-10T18:03:59.419Z,35.83
2022-10-10T18:06:26.883Z,89.30
2022-10-10T18:08:54.254Z,73.05
2022-10-10T18:11:27.436Z,102.63
2022-10-10T18:14:00.355Z,37.47
2022-10-10T18:16:30.707Z,22.70
2022-10-10T18:18:58.315Z,26.25
2022-10-10T18:21:25.925Z,60.65
2022-10-10T18:23:53.571Z,46.17
2022-10-10T18:26:23.724Z,73.13
2022-10-10T18:28:53.914Z,49.53
2022-10-10T18:31:23.718Z,81.15
2022-10-10T18:33:51.180Z,59.92
2022-10-10T18:36:21.784Z,62.33
2022-10-10T18:38:48.610Z,55.08
2022-10-10T18:41:18.675Z,43.17
2022-10-10T18:43:46.306Z,67.38
2022-10-10T18:46:15.452Z,52.90
2022-10-10T18:51:13.558Z,47.85
2022-10-10T18:53:45.586Z,41.30
2022-10-10T18:56:16.564Z,32.60
2022-10-10T18:58:43.399Z,37.55
2022-10-10T19:01:12.678Z,36.50
2022-10-10T19:03:40.955Z,32.57
2022-10-10T19:06:10.646Z,36.97
2022-10-10T19:08:37.676Z,40.43
2022-10-10T19:11:05.990Z,45.83
2022-10-10T19:13:34.048Z,47.88
2022-10-10T19:16:05.484Z,39.43
2022-10-10T19:18:33.235Z,40.43
2022-10-10T19:21:02.208Z,37.67
2022-10-10T19:25:56.511Z,38.97
2022-10-10T19:28:23.414Z,37.90
2022-10-10T19:30:50.242Z,37.80
2022-10-10T19:33:17.361Z,34.37
2022-10-10T19:35:49.875Z,45.80
2022-10-10T19:38:19.743Z,31.70
2022-10-10T19:40:47.975Z,34.50
2022-10-10T19:43:16.245Z,29.37
2022-10-10T19:45:48.246Z,44.80
2022-10-10T19:48:15.690Z,44.80
2022-10-10T19:50:44.286Z,31.33
2022-10-10T19:53:13.378Z,36.67
2022-10-10T19:55:41.700Z,38.60
2022-10-10T19:58:08.462Z,30.53
2022-10-10T20:00:37.463Z,37.80
2022-10-10T20:03:04.459Z,39.50
2022-10-10T20:05:31.493Z,36.87
2022-10-10T20:07:58.467Z,37.87
2022-10-10T20:10:25.230Z,35.83
2022-10-10T20:12:51.982Z,37.23
2022-10-10T20:15:18.961Z,35.13
2022-10-10T20:17:45.759Z,29.47
2022-10-10T20:20:12.526Z,37.03
2022-10-10T20:22:39.557Z,28.57
2022-10-10T20:25:06.960Z,28.63
2022-10-10T20:27:34.306Z,25.90
2022-10-10T20:30:01.269Z,28.63
2022-10-10T20:32:28.022Z,29.63
2022-10-10T20:34:54.986Z,30.07
2022-10-10T20:37:22.002Z,31.33
2022-10-10T20:39:48.770Z,26.53
2022-10-10T20:42:15.558Z,32.37
2022-10-10T20:44:42.527Z,30.43
2022-10-10T20:47:09.317Z,26.43
2022-10-10T20:49:36.207Z,26.50
2022-10-10T20:52:03.215Z,28.00
2022-10-10T20:54:29.952Z,27.43
2022-10-10T20:56:56.722Z,27.13
2022-10-10T20:59:24.686Z,26.43
2022-10-10T21:01:51.677Z,28.67
2022-10-10T21:04:18.556Z,34.87
2022-10-10T21:06:45.790Z,35.23
2022-10-10T21:09:14.439Z,30.70
2022-10-10T21:11:41.657Z,31.10
2022-10-10T21:14:08.679Z,28.90
2022-10-10T21:16:38.178Z,28.17
2022-10-10T21:19:07.254Z,29.73
2022-10-10T21:24:04.948Z,29.13
2022-10-10T21:26:32.579Z,27.03
2022-10-10T21:29:00.877Z,29.73
2022-10-10T21:31:33.241Z,37.00
2022-10-10T21:34:02.541Z,29.40
2022-10-10T21:36:30.457Z,39.45
2022-10-10T21:38:58.790Z,30.80
2022-10-10T21:41:26.291Z,31.40
2022-10-10T21:43:56.264Z,31.37
2022-10-10T21:46:34.732Z,38.50
2022-10-10T21:49:07.885Z,32.20
2022-10-10T21:51:40.395Z,48.17
2022-10-10T21:54:08.120Z,34.30
2022-10-10T21:56:35.497Z,36.57
2022-10-10T21:59:03.037Z,36.13
2022-10-10T22:01:34.041Z,28.47
2022-10-10T22:04:02.764Z,33.13
2022-10-10T22:06:30.136Z,35.88
2022-10-10T22:08:58.649Z,30.57
2022-10-10T22:11:27.317Z,40.43
2022-10-10T22:13:54.401Z,36.05
2022-10-10T22:16:21.991Z,31.63
2022-10-10T22:18:53.508Z,27.82
2022-10-10T22:21:20.443Z,40.43
2022-10-10T22:23:47.447Z,40.93
2022-10-10T22:26:16.098Z,37.93
2022-10-10T22:28:44.505Z,34.00
2022-10-10T22:31:14.250Z,28.87
2022-10-10T22:33:41.489Z,26.67
2022-10-10T22:36:09.388Z,35.10
2022-10-10T22:38:39.041Z,27.70
2022-10-10T22:41:06.862Z,30.13
2022-10-10T22:43:33.674Z,28.83
2022-10-10T22:46:01.295Z,28.63
2022-10-10T22:48:28.822Z,31.23
2022-10-10T22:51:04.646Z,28.50
2022-10-10T22:53:31.844Z,29.93
2022-10-10T22:55:59.083Z,28.63
2022-10-10T22:58:26.228Z,26.83
2022-10-10T23:00:54.303Z,27.77
2022-10-10T23:03:21.396Z,23.90
2022-10-10T23:05:48.430Z,34.27
2022-10-10T23:08:15.569Z,32.87
2022-10-10T23:10:42.503Z,22.93
2022-10-10T23:13:09.466Z,21.93
2022-10-10T23:15:36.323Z,19.87
2022-10-10T23:18:03.071Z,21.27
2022-10-10T23:20:30.141Z,22.13
2022-10-10T23:22:56.985Z,23.00
2022-10-10T23:25:24.192Z,21.97
2022-10-10T23:27:51.256Z,26.27
2022-10-10T23:30:18.034Z,28.43
2022-10-10T23:32:44.943Z,24.13
2022-10-10T23:35:13.611Z,24.43
2022-10-10T23:37:41.539Z,22.10
2022-10-10T23:40:08.905Z,19.77
2022-10-10T23:42:35.932Z,22.30
2022-10-10T23:45:03.598Z,23.40
2022-10-10T23:47:30.485Z,21.23
2022-10-10T23:49:57.539Z,28.23
2022-10-10T23:52:24.619Z,22.87
2022-10-10T23:54:51.411Z,23.93
2022-10-10T23:57:18.354Z,24.03
2022-10-10T23:59:45.119Z,25.70
